sensor_id;sensor_type;location;lat;lon;timestamp;pressure;altitude;pressure_sealevel;temperature;humidity
14253;BME280;7210;51.502;10.722;2022-10-26T00:01:10;99883.03;;;7.10;100.00
14253;BME280;7210;51.502;10.722;2022-10-26T00:03:41;99889.31;;;7.15;100.00
14253;BME280;7210;51.502;10.722;2022-10-26T00:06:12;99888.50;;;7.15;100.00
14253;BME280;7210;51.502;10.722;2022-10-26T00:08:40;99890.91;;;7.10;100.00
14253;BME280;7210;51.502;10.722;2022-10-26T00:11:08;99892.31;;;7.06;100.00
14253;BME280;7210;51.502;10.722;2022-10-26T00:13:36;99882.81;;;7.05;100.00
14253;BME280;7210;51.502;10.722;2022-10-26T00:16:08;99890.50;;;7.06;100.00
14253;BME280;7210;51.502;10.722;2022-10-26T00:18:37;99891.28;;;7.07;100.00
14253;BME280;7210;51.502;10.722;2022-10-26T00:21:08;99895.34;;;7.09;100.00
14253;BME280;7210;51.502;10.722;2022-10-26T00:23:36;99888.06;;;7.11;100.00
14253;BME280;7210;51.502;10.722;2022-10-26T00:26:04;99890.91;;;7.10;100.00
14253;BME280;7210;51.502;10.722;2022-10-26T00:28:32;99894.94;;;7.06;100.00
14253;BME280;7210;51.502;10.722;2022-10-26T00:31:00;99897.97;;;7.03;100.00
14253;BME280;7210;51.502;10.722;2022-10-26T00:33:28;99897.75;;;7.04;100.00
14253;BME280;7210;51.502;10.722;2022-10-26T00:35:55;99895.94;;;7.05;100.00
14253;BME280;7210;51.502;10.722;2022-10-26T00:38:24;99887.47;;;7.03;100.00
14253;BME280;7210;51.502;10.722;2022-10-26T00:40:51;99892.13;;;7.07;100.00
14253;BME280;7210;51.502;10.722;2022-10-26T00:43:37;99888.06;;;7.05;100.00
14253;BME280;7210;51.502;10.722;2022-10-26T00:46:10;99886.41;;;6.97;100.00
14253;BME280;7210;51.502;10.722;2022-10-26T00:48:48;99883.53;;;6.86;100.00
14253;BME280;7210;51.502;10.722;2022-10-26T00:51:24;99886.31;;;6.78;100.00
14253;BME280;7210;51.502;10.722;2022-10-26T00:53:55;99880.25;;;6.77;100.00
14253;BME280;7210;51.502;10.722;2022-10-26T00:56:25;99875.63;;;6.79;100.00
14253;BME280;7210;51.502;10.722;2022-10-26T00:58:54;99875.63;;;6.79;100.00
14253;BME280;7210;51.502;10.722;2022-10-26T01:01:23;99884.69;;;6.77;100.00
14253;BME280;7210;51.502;10.722;2022-10-26T01:03:51;99886.72;;;6.75;100.00
14253;BME280;7210;51.502;10.722;2022-10-26T01:06:20;99885.72;;;6.76;100.00
14253;BME280;7210;51.502;10.722;2022-10-26T01:08:48;99888.34;;;6.76;100.00
14253;BME280;7210;51.502;10.722;2022-10-26T01:11:18;99886.09;;;6.73;100.00
14253;BME280;7210;51.502;10.722;2022-10-26T01:13:47;99880.66;;;6.74;100.00
14253;BME280;7210;51.502;10.722;2022-10-26T01:16:41;99882.72;;;6.85;100.00
14253;BME280;7210;51.502;10.722;2022-10-26T01:20:18;99886.38;;;6.91;100.00
14253;BME280;7210;51.502;10.722;2022-10-26T01:22:56;99879.09;;;6.93;100.00
14253;BME280;7210;51.502;10.722;2022-10-26T01:25:58;99880.34;;;6.97;100.00
14253;BME280;7210;51.502;10.722;2022-10-26T01:28:56;99877.31;;;7.00;100.00
14253;BME280;7210;51.502;10.722;2022-10-26T01:31:32;99869.06;;;7.03;100.00
14253;BME280;7210;51.502;10.722;2022-10-26T01:34:06;99884.84;;;7.09;100.00
14253;BME280;7210;51.502;10.722;2022-10-26T01:36:43;99879.00;;;7.14;100.00
14253;BME280;7210;51.502;10.722;2022-10-26T01:39:21;99876.19;;;7.22;100.00
14253;BME280;7210;51.502;10.722;2022-10-26T01:41:56;99876.41;;;7.27;100.00
14253;BME280;7210;51.502;10.722;2022-10-26T01:44:29;99880.88;;;7.32;100.00
14253;BME280;7210;51.502;10.722;2022-10-26T01:47:02;99870.38;;;7.32;100.00
14253;BME280;7210;51.502;10.722;2022-10-26T01:49:37;99867.31;;;7.29;100.00
14253;BME280;7210;51.502;10.722;2022-10-26T01:52:09;99859.81;;;7.20;100.00
14253;BME280;7210;51.502;10.722;2022-10-26T01:54:37;99872.34;;;7.30;100.00
14253;BME280;7210;51.502;10.722;2022-10-26T01:57:08;99864.69;;;7.29;100.00
14253;BME280;7210;51.502;10.722;2022-10-26T01:59:56;99873.78;;;7.33;100.00
14253;BME280;7210;51.502;10.722;2022-10-26T02:03:00;99861.47;;;7.33;100.00
14253;BME280;7210;51.502;10.722;2022-10-26T02:08:37;99859.03;;;7.38;100.00
14253;BME280;7210;51.502;10.722;2022-10-26T02:11:20;99854.16;;;7.29;100.00
14253;BME280;7210;51.502;10.722;2022-10-26T02:13:59;99862.06;;;7.35;100.00
14253;BME280;7210;51.502;10.722;2022-10-26T02:20:47;99853.75;;;7.26;100.00
14253;BME280;7210;51.502;10.722;2022-10-26T02:23:17;99850.50;;;7.23;100.00
14253;BME280;7210;51.502;10.722;2022-10-26T02:25:50;99852.53;;;7.22;100.00
14253;BME280;7210;51.502;10.722;2022-10-26T02:28:31;99857.78;;;7.22;100.00
14253;BME280;7210;51.502;10.722;2022-10-26T02:31:03;99856.56;;;7.18;100.00
14253;BME280;7210;51.502;10.722;2022-10-26T02:33:37;99850.91;;;7.14;100.00
14253;BME280;7210;51.502;10.722;2022-10-26T02:36:11;99847.63;;;7.12;100.00
14253;BME280;7210;51.502;10.722;2022-10-26T02:38:41;99846.84;;;7.12;100.00
14253;BME280;7210;51.502;10.722;2022-10-26T02:41:12;99841.59;;;7.12;100.00
14253;BME280;7210;51.502;10.722;2022-10-26T02:43:47;99845.00;;;7.12;100.00
14253;BME280;7210;51.502;10.722;2022-10-26T02:46:19;99838.94;;;7.12;100.00
14253;BME280;7210;51.502;10.722;2022-10-26T02:48:48;99843.81;;;7.15;100.00
14253;BME280;7210;51.502;10.722;2022-10-26T02:51:25;99839.97;;;7.17;100.00
14253;BME280;7210;51.502;10.722;2022-10-26T02:54:00;99842.81;;;7.22;100.00
14253;BME280;7210;51.502;10.722;2022-10-26T02:56:40;99842.41;;;7.31;100.00
14253;BME280;7210;51.502;10.722;2022-10-26T02:59:12;99826.63;;;7.19;100.00
14253;BME280;7210;51.502;10.722;2022-10-26T03:01:41;99839.59;;;7.27;100.00
14253;BME280;7210;51.502;10.722;2022-10-26T03:04:08;99837.56;;;7.28;100.00
14253;BME280;7210;51.502;10.722;2022-10-26T03:06:37;99832.13;;;7.36;100.00
14253;BME280;7210;51.502;10.722;2022-10-26T03:09:04;99832.34;;;7.41;100.00
14253;BME280;7210;51.502;10.722;2022-10-26T03:11:33;99834.38;;;7.46;100.00
14253;BME280;7210;51.502;10.722;2022-10-26T03:14:01;99834.56;;;7.44;100.00
14253;BME280;7210;51.502;10.722;2022-10-26T03:16:28;99832.94;;;7.43;100.00
14253;BME280;7210;51.502;10.722;2022-10-26T03:18:55;99837.59;;;7.41;100.00
14253;BME280;7210;51.502;10.722;2022-10-26T03:21:27;99835.97;;;7.40;100.00
14253;BME280;7210;51.502;10.722;2022-10-26T03:23:56;99832.13;;;7.36;100.00
14253;BME280;7210;51.502;10.722;2022-10-26T03:26:24;99836.38;;;7.37;100.00
14253;BME280;7210;51.502;10.722;2022-10-26T03:28:51;99824.84;;;7.38;100.00
14253;BME280;7210;51.502;10.722;2022-10-26T03:31:19;99829.09;;;7.39;100.00
14253;BME280;7210;51.502;10.722;2022-10-26T03:33:46;99829.50;;;7.36;100.00
14253;BME280;7210;51.502;10.722;2022-10-26T03:36:15;99828.69;;;7.42;100.00
14253;BME280;7210;51.502;10.722;2022-10-26T03:38:43;99824.63;;;7.46;100.00
14253;BME280;7210;51.502;10.722;2022-10-26T03:41:11;99825.66;;;7.45;100.00
14253;BME280;7210;51.502;10.722;2022-10-26T03:43:39;99822.22;;;7.45;100.00
14253;BME280;7210;51.502;10.722;2022-10-26T03:46:06;99819.78;;;7.43;100.00
14253;BME280;7210;51.502;10.722;2022-10-26T03:48:33;99818.19;;;7.42;100.00
14253;BME280;7210;51.502;10.722;2022-10-26T03:51:01;99821.00;;;7.41;100.00
14253;BME280;7210;51.502;10.722;2022-10-26T03:53:28;99816.94;;;7.38;100.00
14253;BME280;7210;51.502;10.722;2022-10-26T03:55:55;99817.78;;;7.39;100.00
14253;BME280;7210;51.502;10.722;2022-10-26T03:58:24;99815.31;;;7.37;100.00
14253;BME280;7210;51.502;10.722;2022-10-26T04:00:51;99813.13;;;7.34;100.00
14253;BME280;7210;51.502;10.722;2022-10-26T04:03:19;99822.22;;;7.32;100.00
14253;BME280;7210;51.502;10.722;2022-10-26T04:05:51;99815.53;;;7.29;100.00
14253;BME280;7210;51.502;10.722;2022-10-26T04:08:19;99826.03;;;7.29;100.00
14253;BME280;7210;51.502;10.722;2022-10-26T04:10:46;99821.38;;;7.31;100.00
14253;BME280;7210;51.502;10.722;2022-10-26T04:13:13;99821.78;;;7.28;100.00
14253;BME280;7210;51.502;10.722;2022-10-26T04:15:42;99829.50;;;7.36;100.00
14253;BME280;7210;51.502;10.722;2022-10-26T04:18:09;99824.41;;;7.35;100.00
14253;BME280;7210;51.502;10.722;2022-10-26T04:20:39;99823.63;;;7.34;100.00
14253;BME280;7210;51.502;10.722;2022-10-26T04:23:11;99819.97;;;7.35;100.00
14253;BME280;7210;51.502;10.722;2022-10-26T04:25:39;99823.44;;;7.36;100.00
14253;BME280;7210;51.502;10.722;2022-10-26T04:28:12;99820.22;;;7.40;100.00
14253;BME280;7210;51.502;10.722;2022-10-26T04:30:41;99812.69;;;7.37;100.00
14253;BME280;7210;51.502;10.722;2022-10-26T04:33:09;99819.38;;;7.33;100.00
14253;BME280;7210;51.502;10.722;2022-10-26T04:35:36;99823.03;;;7.32;100.00
14253;BME280;7210;51.502;10.722;2022-10-26T04:38:05;99824.66;;;7.33;100.00
14253;BME280;7210;51.502;10.722;2022-10-26T04:40:34;99816.72;;;7.27;100.00
14253;BME280;7210;51.502;10.722;2022-10-26T04:43:01;99818.75;;;7.31;100.00
14253;BME280;7210;51.502;10.722;2022-10-26T04:45:33;99824.22;;;7.36;100.00
14253;BME280;7210;51.502;10.722;2022-10-26T04:48:05;99828.47;;;7.37;100.00
14253;BME280;7210;51.502;10.722;2022-10-26T04:50:33;99825.84;;;7.31;100.00
14253;BME280;7210;51.502;10.722;2022-10-26T04:53:02;99827.66;;;7.30;100.00
14253;BME280;7210;51.502;10.722;2022-10-26T04:55:30;99827.88;;;7.29;100.00
14253;BME280;7210;51.502;10.722;2022-10-26T04:57:57;99824.66;;;7.33;100.00
14253;BME280;7210;51.502;10.722;2022-10-26T05:00:25;99831.28;;;7.29;100.00
14253;BME280;7210;51.502;10.722;2022-10-26T05:02:58;99830.09;;;7.26;100.00
14253;BME280;7210;51.502;10.722;2022-10-26T05:05:27;99829.47;;;7.23;100.00
14253;BME280;7210;51.502;10.722;2022-10-26T05:07:55;99814.09;;;7.14;100.00
14253;BME280;7210;51.502;10.722;2022-10-26T05:10:22;99818.13;;;7.17;100.00
14253;BME280;7210;51.502;10.722;2022-10-26T05:12:50;99820.13;;;7.15;100.00
14253;BME280;7210;51.502;10.722;2022-10-26T05:15:18;99823.38;;;7.17;100.00
14253;BME280;7210;51.502;10.722;2022-10-26T05:17:46;99814.88;;;7.15;100.00
14253;BME280;7210;51.502;10.722;2022-10-26T05:20:13;99815.28;;;7.12;100.00
14253;BME280;7210;51.502;10.722;2022-10-26T05:22:42;99816.31;;;7.11;100.00
14253;BME280;7210;51.502;10.722;2022-10-26T05:25:09;99813.69;;;7.11;100.00
14253;BME280;7210;51.502;10.722;2022-10-26T05:27:36;99821.75;;;7.09;100.00
14253;BME280;7210;51.502;10.722;2022-10-26T05:30:05;99825.81;;;7.12;100.00
14253;BME280;7210;51.502;10.722;2022-10-26T05:32:32;99819.34;;;7.21;100.00
14253;BME280;7210;51.502;10.722;2022-10-26T05:35:04;99822.16;;;7.19;100.00
14253;BME280;7210;51.502;10.722;2022-10-26T05:37:32;99826.63;;;7.19;100.00
14253;BME280;7210;51.502;10.722;2022-10-26T05:40:00;99823.38;;;7.17;100.00
14253;BME280;7210;51.502;10.722;2022-10-26T05:42:28;99829.25;;;7.19;100.00
14253;BME280;7210;51.502;10.722;2022-10-26T05:44:55;99831.50;;;7.22;100.00
14253;BME280;7210;51.502;10.722;2022-10-26T05:47:23;99832.31;;;7.28;100.00
14253;BME280;7210;51.502;10.722;2022-10-26T05:49:50;99825.84;;;7.31;100.00
14253;BME280;7210;51.502;10.722;2022-10-26T05:52:17;99833.97;;;7.36;100.00
14253;BME280;7210;51.502;10.722;2022-10-26T05:54:44;99840.44;;;7.40;100.00
14253;BME280;7210;51.502;10.722;2022-10-26T05:57:16;99843.47;;;7.43;100.00
14253;BME280;7210;51.502;10.722;2022-10-26T05:59:44;99842.44;;;7.44;100.00
14253;BME280;7210;51.502;10.722;2022-10-26T06:02:24;99846.69;;;7.45;100.00
14253;BME280;7210;51.502;10.722;2022-10-26T06:05:02;99854.00;;;7.50;100.00
14253;BME280;7210;51.502;10.722;2022-10-26T06:07:31;99842.88;;;7.48;100.00
14253;BME280;7210;51.502;10.722;2022-10-26T06:10:00;99852.97;;;7.51;100.00
14253;BME280;7210;51.502;10.722;2022-10-26T06:12:29;99853.78;;;7.51;100.00
14253;BME280;7210;51.502;10.722;2022-10-26T06:14:58;99848.53;;;7.51;100.00
14253;BME280;7210;51.502;10.722;2022-10-26T06:17:42;99856.44;;;7.51;100.00
14253;BME280;7210;51.502;10.722;2022-10-26T06:20:32;99859.47;;;7.55;100.00
14253;BME280;7210;51.502;10.722;2022-10-26T06:23:36;99857.25;;;7.52;100.00
14253;BME280;7210;51.502;10.722;2022-10-26T06:26:16;99862.69;;;7.50;100.00
14253;BME280;7210;51.502;10.722;2022-10-26T06:28:59;99859.47;;;7.48;100.00
14253;BME280;7210;51.502;10.722;2022-10-26T06:31:29;99870.19;;;7.53;100.00
14253;BME280;7210;51.502;10.722;2022-10-26T06:33:59;99871.59;;;7.56;100.00
14253;BME280;7210;51.502;10.722;2022-10-26T06:36:28;99876.25;;;7.60;100.00
14253;BME280;7210;51.502;10.722;2022-10-26T06:39:00;99876.47;;;7.65;100.00
14253;BME280;7210;51.502;10.722;2022-10-26T06:41:32;99878.69;;;7.68;100.00
14253;BME280;7210;51.502;10.722;2022-10-26T06:44:03;99884.97;;;7.74;100.00
14253;BME280;7210;51.502;10.722;2022-10-26T06:46:38;99876.88;;;7.82;100.00
14253;BME280;7210;51.502;10.722;2022-10-26T06:49:18;99872.03;;;7.85;100.00
14253;BME280;7210;51.502;10.722;2022-10-26T06:51:55;99878.09;;;7.92;100.00
14253;BME280;7210;51.502;10.722;2022-10-26T06:54:33;99872.44;;;7.95;100.00
14253;BME280;7210;51.502;10.722;2022-10-26T06:57:09;99878.91;;;7.99;100.00
14253;BME280;7210;51.502;10.722;2022-10-26T06:59:42;99880.34;;;8.02;100.00
14253;BME280;7210;51.502;10.722;2022-10-26T07:02:12;99882.97;;;8.02;100.00
14253;BME280;7210;51.502;10.722;2022-10-26T07:04:40;99859.88;;;7.97;100.00
14253;BME280;7210;51.502;10.722;2022-10-26T07:07:08;99881.13;;;8.15;100.00
14253;BME280;7210;51.502;10.722;2022-10-26T07:09:37;99876.09;;;8.20;100.00
14253;BME280;7210;51.502;10.722;2022-10-26T07:12:06;99883.75;;;8.15;100.00
14253;BME280;7210;51.502;10.722;2022-10-26T07:14:33;99874.03;;;8.09;100.00
14253;BME280;7210;51.502;10.722;2022-10-26T07:17:03;99867.97;;;8.15;100.00
14253;BME280;7210;51.502;10.722;2022-10-26T07:19:31;99869.00;;;8.27;100.00
14253;BME280;7210;51.502;10.722;2022-10-26T07:21:58;99871.63;;;8.34;100.00
14253;BME280;7210;51.502;10.722;2022-10-26T07:24:26;99869.16;;;8.45;100.00
14253;BME280;7210;51.502;10.722;2022-10-26T07:26:54;99869.16;;;8.58;100.00
14253;BME280;7210;51.502;10.722;2022-10-26T07:29:22;99858.19;;;8.68;100.00
14253;BME280;7210;51.502;10.722;2022-10-26T07:31:50;99862.41;;;8.75;100.00
14253;BME280;7210;51.502;10.722;2022-10-26T07:34:19;99872.72;;;8.83;100.00
14253;BME280;7210;51.502;10.722;2022-10-26T07:36:47;99873.94;;;8.87;100.00
14253;BME280;7210;51.502;10.722;2022-10-26T07:39:15;99879.56;;;8.97;100.00
14253;BME280;7210;51.502;10.722;2022-10-26T07:41:44;99889.69;;;9.00;100.00
14253;BME280;7210;51.502;10.722;2022-10-26T07:44:12;99877.91;;;9.03;100.00
14253;BME280;7210;51.502;10.722;2022-10-26T07:46:39;99876.28;;;9.02;100.00
14253;BME280;7210;51.502;10.722;2022-10-26T07:49:07;99879.91;;;9.07;100.00
14253;BME280;7210;51.502;10.722;2022-10-26T07:51:35;99878.66;;;9.16;100.00
14253;BME280;7210;51.502;10.722;2022-10-26T07:54:03;99876.97;;;9.28;100.00
14253;BME280;7210;51.502;10.722;2022-10-26T07:56:30;99876.09;;;9.41;100.00
14253;BME280;7210;51.502;10.722;2022-10-26T07:58:57;99863.66;;;9.48;100.00
14253;BME280;7210;51.502;10.722;2022-10-26T08:01:25;99872.56;;;9.53;100.00
14253;BME280;7210;51.502;10.722;2022-10-26T08:03:53;99871.50;;;9.61;100.00
14253;BME280;7210;51.502;10.722;2022-10-26T08:06:22;99858.84;;;9.69;100.00
14253;BME280;7210;51.502;10.722;2022-10-26T08:08:51;99863.22;;;9.82;100.00
14253;BME280;7210;51.502;10.722;2022-10-26T08:11:21;99859.34;;;9.84;100.00
14253;BME280;7210;51.502;10.722;2022-10-26T08:13:51;99860.09;;;9.91;100.00
14253;BME280;7210;51.502;10.722;2022-10-26T08:16:18;99851.31;;;9.97;100.00
14253;BME280;7210;51.502;10.722;2022-10-26T08:18:47;99849.84;;;10.01;100.00
14253;BME280;7210;51.502;10.722;2022-10-26T08:21:14;99851.06;;;10.05;100.00
14253;BME280;7210;51.502;10.722;2022-10-26T08:23:42;99850.72;;;10.20;100.00
14253;BME280;7210;51.502;10.722;2022-10-26T08:26:11;99838.16;;;10.15;100.00
14253;BME280;7210;51.502;10.722;2022-10-26T08:28:39;99853.00;;;10.34;100.00
14253;BME280;7210;51.502;10.722;2022-10-26T08:31:07;99851.56;;;10.38;100.00
14253;BME280;7210;51.502;10.722;2022-10-26T08:33:34;99836.91;;;10.42;100.00
14253;BME280;7210;51.502;10.722;2022-10-26T08:36:04;99829.25;;;10.52;100.00
14253;BME280;7210;51.502;10.722;2022-10-26T08:38:32;99816.97;;;10.58;100.00
14253;BME280;7210;51.502;10.722;2022-10-26T08:41:06;99814.97;;;10.71;100.00
14253;BME280;7210;51.502;10.722;2022-10-26T08:43:41;99811.91;;;10.74;100.00
14253;BME280;7210;51.502;10.722;2022-10-26T08:46:16;99812.78;;;10.86;100.00
14253;BME280;7210;51.502;10.722;2022-10-26T08:48:51;99817.19;;;10.92;100.00
14253;BME280;7210;51.502;10.722;2022-10-26T08:51:25;99810.28;;;10.91;100.00
14253;BME280;7210;51.502;10.722;2022-10-26T08:54:00;99811.56;;;11.00;100.00
14253;BME280;7210;51.502;10.722;2022-10-26T08:56:36;99811.13;;;11.03;100.00
14253;BME280;7210;51.502;10.722;2022-10-26T08:59:17;99809.78;;;11.12;100.00
14253;BME280;7210;51.502;10.722;2022-10-26T09:01:52;99811.41;;;11.13;100.00
14253;BME280;7210;51.502;10.722;2022-10-26T09:04:25;99815.78;;;11.19;100.00
14253;BME280;7210;51.502;10.722;2022-10-26T09:07:02;99809.94;;;11.28;100.00
14253;BME280;7210;51.502;10.722;2022-10-26T09:09:46;99808.41;;;11.50;100.00
14253;BME280;7210;51.502;10.722;2022-10-26T09:12:25;99799.78;;;11.55;100.00
14253;BME280;7210;51.502;10.722;2022-10-26T09:15:12;99801.56;;;11.72;100.00
14253;BME280;7210;51.502;10.722;2022-10-26T09:17:52;99795.00;;;11.75;100.00
14253;BME280;7210;51.502;10.722;2022-10-26T09:20:56;99794.06;;;11.81;100.00
14253;BME280;7210;51.502;10.722;2022-10-26T09:23:56;99781.06;;;11.91;100.00
14253;BME280;7210;51.502;10.722;2022-10-26T09:26:36;99786.59;;;12.01;100.00
14253;BME280;7210;51.502;10.722;2022-10-26T09:29:12;99777.38;;;12.03;100.00
14253;BME280;7210;51.502;10.722;2022-10-26T09:31:44;99769.44;;;12.15;100.00
14253;BME280;7210;51.502;10.722;2022-10-26T09:34:24;99771.25;;;12.26;100.00
14253;BME280;7210;51.502;10.722;2022-10-26T09:36:54;99777.78;;;12.35;100.00
14253;BME280;7210;51.502;10.722;2022-10-26T09:39:34;99777.22;;;12.33;100.00
14253;BME280;7210;51.502;10.722;2022-10-26T09:42:13;99780.78;;;12.38;100.00
14253;BME280;7210;51.502;10.722;2022-10-26T09:44:49;99785.97;;;12.45;100.00
14253;BME280;7210;51.502;10.722;2022-10-26T09:47:32;99790.31;;;12.51;100.00
14253;BME280;7210;51.502;10.722;2022-10-26T09:50:16;99778.00;;;12.56;100.00
14253;BME280;7210;51.502;10.722;2022-10-26T09:52:44;99785.94;;;12.68;100.00
14253;BME280;7210;51.502;10.722;2022-10-26T09:55:12;99791.91;;;12.75;100.00
14253;BME280;7210;51.502;10.722;2022-10-26T09:57:43;99794.19;;;12.83;100.00
14253;BME280;7210;51.502;10.722;2022-10-26T10:00:23;99789.78;;;12.88;100.00
14253;BME280;7210;51.502;10.722;2022-10-26T10:02:54;99793.47;;;12.99;100.00
14253;BME280;7210;51.502;10.722;2022-10-26T10:05:29;99789.38;;;13.08;100.00
14253;BME280;7210;51.502;10.722;2022-10-26T10:08:15;99787.22;;;13.21;100.00
14253;BME280;7210;51.502;10.722;2022-10-26T10:11:01;99784.41;;;13.28;100.00
14253;BME280;7210;51.502;10.722;2022-10-26T10:13:32;99788.06;;;13.38;100.00
14253;BME280;7210;51.502;10.722;2022-10-26T10:16:10;99796.78;;;13.50;100.00
14253;BME280;7210;51.502;10.722;2022-10-26T10:18:41;99795.50;;;13.53;100.00
14253;BME280;7210;51.502;10.722;2022-10-26T10:21:09;99796.50;;;13.52;100.00
14253;BME280;7210;51.502;10.722;2022-10-26T10:23:48;99797.56;;;13.51;100.00
14253;BME280;7210;51.502;10.722;2022-10-26T10:26:17;99797.75;;;13.61;100.00
14253;BME280;7210;51.502;10.722;2022-10-26T10:28:57;99787.59;;;13.58;100.00
14253;BME280;7210;51.502;10.722;2022-10-26T10:31:28;99786.63;;;13.64;100.00
14253;BME280;7210;51.502;10.722;2022-10-26T10:33:58;99789.84;;;13.66;100.00
14253;BME280;7210;51.502;10.722;2022-10-26T10:36:28;99794.75;;;13.74;100.00
14253;BME280;7210;51.502;10.722;2022-10-26T10:38:56;99790.00;;;13.92;100.00
14253;BME280;7210;51.502;10.722;2022-10-26T10:41:29;99781.63;;;14.00;100.00
14253;BME280;7210;51.502;10.722;2022-10-26T10:44:05;99783.31;;;14.06;100.00
14253;BME280;7210;51.502;10.722;2022-10-26T10:46:34;99775.31;;;14.06;100.00
14253;BME280;7210;51.502;10.722;2022-10-26T10:49:16;99770.41;;;14.15;100.00
14253;BME280;7210;51.502;10.722;2022-10-26T10:51:44;99775.34;;;14.23;100.00
14253;BME280;7210;51.502;10.722;2022-10-26T10:54:23;99781.75;;;14.27;100.00
14253;BME280;7210;51.502;10.722;2022-10-26T10:56:54;99783.38;;;14.28;100.00
14253;BME280;7210;51.502;10.722;2022-10-26T10:59:49;99790.69;;;14.37;100.00
14253;BME280;7210;51.502;10.722;2022-10-26T11:03:20;99788.25;;;14.36;100.00
14253;BME280;7210;51.502;10.722;2022-10-26T11:06:04;99786.72;;;14.40;100.00
14253;BME280;7210;51.502;10.722;2022-10-26T11:08:41;99801.13;;;14.44;100.00
14253;BME280;7210;51.502;10.722;2022-10-26T11:11:13;99790.91;;;14.36;99.82
14253;BME280;7210;51.502;10.722;2022-10-26T11:13:52;99805.91;;;14.42;99.62
14253;BME280;7210;51.502;10.722;2022-10-26T11:16:27;99801.63;;;14.41;99.32
14253;BME280;7210;51.502;10.722;2022-10-26T11:19:01;99804.41;;;14.51;99.45
14253;BME280;7210;51.502;10.722;2022-10-26T11:21:36;99795.53;;;14.62;99.09
14253;BME280;7210;51.502;10.722;2022-10-26T11:24:13;99784.50;;;14.75;98.64
14253;BME280;7210;51.502;10.722;2022-10-26T11:26:47;99784.72;;;14.95;98.18
14253;BME280;7210;51.502;10.722;2022-10-26T11:29:32;99776.34;;;15.08;97.69
14253;BME280;7210;51.502;10.722;2022-10-26T11:32:13;99764.13;;;15.12;96.66
14253;BME280;7210;51.502;10.722;2022-10-26T11:34:50;99769.53;;;15.17;95.84
14253;BME280;7210;51.502;10.722;2022-10-26T11:37:29;99759.31;;;15.09;95.23
14253;BME280;7210;51.502;10.722;2022-10-26T11:40:15;99758.88;;;15.21;95.10
14253;BME280;7210;51.502;10.722;2022-10-26T11:42:50;99759.50;;;15.28;94.83
14253;BME280;7210;51.502;10.722;2022-10-26T11:45:25;99753.88;;;15.51;94.31
14253;BME280;7210;51.502;10.722;2022-10-26T11:48:01;99752.84;;;15.57;93.80
14253;BME280;7210;51.502;10.722;2022-10-26T11:50:33;99755.88;;;15.66;93.45
14253;BME280;7210;51.502;10.722;2022-10-26T11:53:11;99746.88;;;15.77;93.07
14253;BME280;7210;51.502;10.722;2022-10-26T11:55:45;99745.63;;;15.89;92.68
14253;BME280;7210;51.502;10.722;2022-10-26T11:58:15;99738.97;;;15.92;92.24
14253;BME280;7210;51.502;10.722;2022-10-26T12:00:48;99741.44;;;16.03;91.79
14253;BME280;7210;51.502;10.722;2022-10-26T12:03:22;99736.94;;;16.04;91.12
14253;BME280;7210;51.502;10.722;2022-10-26T12:05:53;99748.38;;;16.04;90.79
14253;BME280;7210;51.502;10.722;2022-10-26T12:08:29;99743.56;;;16.01;90.75
14253;BME280;7210;51.502;10.722;2022-10-26T12:11:04;99752.56;;;15.90;91.09
14253;BME280;7210;51.502;10.722;2022-10-26T12:13:41;99743.53;;;15.96;90.72
14253;BME280;7210;51.502;10.722;2022-10-26T12:16:28;99758.06;;;16.15;90.69
14253;BME280;7210;51.502;10.722;2022-10-26T12:19:03;99757.00;;;16.21;89.95
14253;BME280;7210;51.502;10.722;2022-10-26T12:21:33;99760.78;;;16.25;89.80
14253;BME280;7210;51.502;10.722;2022-10-26T12:24:26;99758.03;;;16.10;89.16
14253;BME280;7210;51.502;10.722;2022-10-26T12:26:55;99757.97;;;16.05;89.32
14253;BME280;7210;51.502;10.722;2022-10-26T12:29:39;99770.25;;;16.01;89.41
14253;BME280;7210;51.502;10.722;2022-10-26T12:32:49;99770.19;;;15.96;89.44
14253;BME280;7210;51.502;10.722;2022-10-26T12:35:43;99766.41;;;15.87;89.41
14253;BME280;7210;51.502;10.722;2022-10-26T12:41:27;99777.38;;;15.91;90.06
14253;BME280;7210;51.502;10.722;2022-10-26T12:44:30;99776.38;;;16.02;90.21
14253;BME280;7210;51.502;10.722;2022-10-26T12:46:56;99777.31;;;16.27;90.11
14253;BME280;7210;51.502;10.722;2022-10-26T12:52:40;99788.16;;;16.47;88.17
14253;BME280;7210;51.502;10.722;2022-10-26T12:55:53;99778.53;;;16.46;87.53
14253;BME280;7210;51.502;10.722;2022-10-26T12:59:17;99780.94;;;16.48;87.33
14253;BME280;7210;51.502;10.722;2022-10-26T13:02:26;99774.47;;;16.39;86.87
14253;BME280;7210;51.502;10.722;2022-10-26T13:08:40;99772.53;;;16.29;87.46
14253;BME280;7210;51.502;10.722;2022-10-26T13:11:17;99770.91;;;16.28;87.69
14253;BME280;7210;51.502;10.722;2022-10-26T13:13:53;99768.78;;;16.25;87.77
14253;BME280;7210;51.502;10.722;2022-10-26T13:16:26;99773.34;;;16.30;87.70
14253;BME280;7210;51.502;10.722;2022-10-26T13:18:54;99770.91;;;16.28;87.74
14253;BME280;7210;51.502;10.722;2022-10-26T13:21:24;99769.31;;;16.27;87.83
14253;BME280;7210;51.502;10.722;2022-10-26T13:23:59;99770.38;;;16.26;88.31
14253;BME280;7210;51.502;10.722;2022-10-26T13:27:22;99764.50;;;16.24;88.78
14253;BME280;7210;51.502;10.722;2022-10-26T13:33:21;99762.38;;;16.26;88.73
14253;BME280;7210;51.502;10.722;2022-10-26T13:35:54;99765.03;;;16.26;88.78
14253;BME280;7210;51.502;10.722;2022-10-26T13:38:30;99774.13;;;16.25;88.77
14253;BME280;7210;51.502;10.722;2022-10-26T13:41:15;99766.69;;;16.32;88.56
14253;BME280;7210;51.502;10.722;2022-10-26T13:43:45;99769.91;;;16.34;88.04
14253;BME280;7210;51.502;10.722;2022-10-26T13:46:25;99765.66;;;16.38;87.68
14253;BME280;7210;51.502;10.722;2022-10-26T13:49:04;99769.41;;;16.37;87.31
14253;BME280;7210;51.502;10.722;2022-10-26T13:51:42;99760.06;;;16.40;87.12
14253;BME280;7210;51.502;10.722;2022-10-26T13:54:27;99768.31;;;16.38;86.31